Time;durP1;ratioP1;P1;durP2;ratioP2;P2;SDS_P1;SDS_P2;PMS_P1;PMS_P2;Temp;Humidity;BMP_temperature;BMP_pressure;BME280_temperature;BME280_humidity;BME280_pressure;Samples;Min_cycle;Max_cycle;Signal;HPM_P1;HPM_P2
2023/06/20 00:01:20;;;;;;;2.53;1.40;;;22.60;99.90;;;22.69;49.29;100686.53;4987446;28;97693;-47
2023/06/20 00:03:46;;;;;;;2.67;1.60;;;22.70;99.90;;;22.70;49.20;100690.06;4990403;28;104918;-44
2023/06/20 00:06:12;;;;;;;2.17;1.20;;;22.70;99.90;;;22.70;49.30;100692.75;4983893;28;97561;-44
2023/06/20 00:08:38;;;;;;;2.13;1.30;;;22.70;99.90;;;22.71;49.20;100695.34;4962053;28;97683;-44
2023/06/20 00:11:04;;;;;;;4.33;1.70;;;22.70;99.90;;;22.71;49.17;100695.34;4983638;28;97510;-45
2023/06/20 00:13:29;;;;;;;1.57;1.20;;;22.70;99.90;;;22.65;49.28;100685.09;4990988;28;97092;-45
2023/06/20 00:15:58;;;;;;;2.43;1.33;;;22.60;99.90;;;22.58;49.48;100694.69;4980498;28;111377;-46
2023/06/20 00:18:24;;;;;;;2.60;1.63;;;22.60;99.90;;;22.59;49.50;100690.16;4984467;28;97661;-44
2023/06/20 00:20:53;;;;;;;1.57;1.20;;;22.60;99.90;;;22.60;49.44;100683.78;4986680;28;98529;-46
2023/06/20 00:23:21;;;;;;;1.27;0.80;;;22.60;99.90;;;22.62;49.54;100685.34;4985014;28;98910;-48
2023/06/20 00:25:48;;;;;;;1.50;1.10;;;22.60;99.90;;;22.62;49.47;100685.34;4987046;28;102437;-45
2023/06/20 00:28:17;;;;;;;2.20;1.53;;;22.60;99.90;;;22.64;49.53;100696.81;4984391;28;96929;-44
2023/06/20 00:30:44;;;;;;;1.73;1.20;;;22.60;99.90;;;22.65;49.29;100701.22;4990042;28;97438;-45
2023/06/20 00:33:10;;;;;;;2.60;1.43;;;22.60;99.90;;;22.69;50.15;100701.78;4963278;28;97719;-46
2023/06/20 00:35:37;;;;;;;2.40;1.63;;;22.60;99.90;;;22.74;49.45;100703.13;4982481;28;96988;-44
2023/06/20 00:38:03;;;;;;;2.47;1.57;;;22.70;99.90;;;22.76;49.72;100709.22;4993406;28;96739;-45
2023/06/20 00:40:29;;;;;;;2.70;1.57;;;22.70;99.90;;;22.76;49.22;100708.38;4992966;28;96981;-46
2023/06/20 00:42:54;;;;;;;2.80;1.73;;;22.70;99.90;;;22.82;55.52;100711.41;4976908;28;104434;-44
2023/06/20 00:45:33;;;;;;;2.60;1.90;;;22.80;99.90;;;22.84;50.16;100712.13;4983619;27;97489;-44
2023/06/20 00:48:03;;;;;;;1.87;1.47;;;22.80;99.90;;;22.84;49.48;100717.50;4979752;28;97048;-44
2023/06/20 00:50:31;;;;;;;2.03;1.23;;;22.80;99.90;;;22.79;49.43;100721.53;4979721;28;97502;-48
2023/06/20 00:53:05;;;;;;;2.07;1.23;;;22.80;99.90;;;22.71;49.62;100721.34;4981679;28;98102;-45
2023/06/20 00:55:33;;;;;;;1.93;1.67;;;22.70;99.90;;;22.72;49.30;100715.84;4989732;28;97204;-45
2023/06/20 00:58:03;;;;;;;3.23;1.97;;;22.70;99.90;;;22.69;49.61;100716.09;4990487;28;97204;-44
2023/06/20 01:00:33;;;;;;;1.50;1.17;;;22.70;99.90;;;22.67;49.62;100715.38;4984000;28;97536;-44
2023/06/20 01:03:06;;;;;;;3.73;1.73;;;22.70;99.90;;;22.64;50.12;100715.66;4983332;28;97489;-45
2023/06/20 01:05:32;;;;;;;1.30;1.20;;;22.60;99.90;;;22.61;49.67;100709.69;4986799;28;97244;-44
2023/06/20 01:08:22;;;;;;;2.00;1.10;;;22.60;99.90;;;22.60;49.72;100703.47;4968595;28;98690;-44
2023/06/20 01:11:02;;;;;;;2.10;1.30;;;22.60;99.90;;;22.61;49.54;100705.16;4969767;28;97265;-44
2023/06/20 01:13:50;;;;;;;1.80;1.33;;;22.60;99.90;;;22.62;49.53;100706.00;4959862;28;100337;-46
2023/06/20 01:16:32;;;;;;;1.57;1.20;;;22.60;99.90;;;22.59;49.61;100712.50;4969745;28;102102;-47
2023/06/20 01:19:34;;;;;;;1.57;1.20;;;22.60;99.90;;;22.57;49.84;100703.72;4959888;28;97826;-46
2023/06/20 01:22:07;;;;;;;1.60;1.40;;;22.50;99.90;;;22.55;49.91;100711.03;4982070;28;96903;-46
2023/06/20 01:24:46;;;;;;;1.60;1.30;;;22.60;99.90;;;22.55;49.70;100714.56;4962277;28;97510;-47
2023/06/20 01:27:38;;;;;;;1.27;1.10;;;22.50;99.90;;;22.58;49.78;100710.81;4983929;28;96944;-47
2023/06/20 01:30:13;;;;;;;2.97;2.03;;;22.60;99.90;;;22.63;50.20;100713.94;4931830;28;97440;-47
2023/06/20 01:32:46;;;;;;;2.83;1.77;;;22.60;99.90;;;22.72;55.25;100717.69;4979548;22;97552;-44
2023/06/20 01:35:18;;;;;;;3.70;1.83;;;22.60;99.90;;;22.72;50.06;100718.53;4986491;27;98554;-45
2023/06/20 01:37:50;;;;;;;2.17;1.53;;;22.70;99.90;;;22.72;49.97;100709.63;5009884;27;99902;-48
2023/06/20 01:40:20;;;;;;;2.67;1.50;;;22.70;99.90;;;22.72;50.13;100707.78;5014061;27;96842;-44
2023/06/20 01:42:48;;;;;;;1.53;1.20;;;22.70;99.90;;;22.68;49.73;100711.69;4996540;27;96771;-44
2023/06/20 01:45:16;;;;;;;1.93;1.47;;;22.70;99.90;;;22.63;49.81;100713.94;5018099;27;100429;-44
2023/06/20 01:47:43;;;;;;;1.57;1.20;;;22.60;99.90;;;22.63;49.89;100708.56;5017222;27;97079;-45
2023/06/20 01:50:10;;;;;;;2.17;1.77;;;22.60;99.90;;;22.66;49.84;100713.66;5007353;27;97053;-44
2023/06/20 01:52:37;;;;;;;3.10;2.00;;;22.60;99.90;;;22.67;49.84;100714.53;4999490;27;97286;-44
2023/06/20 01:55:05;;;;;;;3.03;2.33;;;22.60;99.90;;;22.65;50.57;100717.34;4998418;27;107188;-44
2023/06/20 01:57:34;;;;;;;2.27;1.37;;;22.60;99.90;;;22.62;49.75;100714.94;4998208;27;97007;-44
2023/06/20 02:00:05;;;;;;;1.93;1.07;;;22.60;99.90;;;22.62;49.78;100708.69;4997819;27;99954;-46
2023/06/20 02:02:32;;;;;;;2.10;1.73;;;22.60;99.90;;;22.60;49.99;100719.59;5006319;27;96896;-44
2023/06/20 02:04:59;;;;;;;1.93;1.40;;;22.60;99.90;;;22.57;49.98;100719.84;5014566;27;103849;-44
2023/06/20 02:07:27;;;;;;;1.80;1.33;;;22.60;99.90;;;22.61;49.77;100713.22;5017043;27;105201;-46
2023/06/20 02:09:54;;;;;;;2.57;1.40;;;22.60;99.90;;;22.61;50.08;100720.44;5026961;27;97341;-44
2023/06/20 02:12:20;;;;;;;2.00;1.60;;;22.60;99.90;;;22.64;50.10;100718.34;5014479;27;97545;-54
2023/06/20 02:14:48;;;;;;;2.07;1.60;;;22.60;99.90;;;22.66;50.15;100724.44;4999461;28;97098;-44
2023/06/20 02:17:15;;;;;;;2.57;1.40;;;22.60;99.90;;;22.63;50.17;100716.63;5028168;27;101251;-44
2023/06/20 02:19:41;;;;;;;3.00;2.00;;;22.60;99.90;;;22.68;50.97;100711.69;5014359;27;96762;-44
2023/06/20 02:22:11;;;;;;;1.87;1.33;;;22.70;99.90;;;22.62;50.30;100725.69;4998788;27;96645;-44
2023/06/20 02:24:37;;;;;;;2.60;1.53;;;22.60;99.90;;;22.63;50.29;100716.63;5013165;27;97464;-43
2023/06/20 02:27:07;;;;;;;2.17;1.33;;;22.60;99.90;;;22.57;50.03;100714.47;4995952;27;108455;-47
2023/06/20 02:29:38;;;;;;;2.57;1.47;;;22.60;99.90;;;22.58;50.15;100721.56;5000465;27;97078;-45
2023/06/20 02:32:05;;;;;;;2.30;1.70;;;22.60;99.90;;;22.63;50.54;100724.69;4993711;27;105129;-46
2023/06/20 02:34:33;;;;;;;3.67;2.10;;;22.60;99.90;;;22.68;51.27;100719.75;5008931;27;98744;-46
2023/06/20 02:37:00;;;;;;;2.37;1.60;;;22.60;99.90;;;22.72;51.01;100731.13;4993913;27;97259;-44
2023/06/20 02:39:26;;;;;;;2.50;1.67;;;22.70;99.90;;;22.70;50.23;100719.63;4994929;27;97339;-45
2023/06/20 02:41:52;;;;;;;1.87;1.33;;;22.70;99.90;;;22.67;50.04;100720.75;5007398;27;97231;-48
2023/06/20 02:44:17;;;;;;;2.27;1.30;;;22.60;99.90;;;22.65;50.14;100721.88;5012193;27;97955;-46
2023/06/20 02:47:02;;;;;;;2.30;1.33;;;22.60;99.90;;;22.62;49.98;100717.63;5013323;27;97606;-46
2023/06/20 02:49:56;;;;;;;1.57;1.33;;;22.60;99.90;;;22.62;49.93;100717.63;5010512;27;96833;-45
2023/06/20 02:53:08;;;;;;;1.83;1.10;;;22.60;99.90;;;22.64;50.09;100721.03;5008451;27;97448;-44
2023/06/20 02:55:54;;;;;;;2.43;1.10;;;22.60;99.90;;;22.62;50.12;100723.00;4978304;27;100489;-46
2023/06/20 02:58:22;;;;;;;3.53;1.57;;;22.60;99.90;;;22.59;50.14;100723.25;4991726;28;102763;-45
2023/06/20 03:00:50;;;;;;;1.70;1.23;;;22.60;99.90;;;22.62;50.07;100723.00;4993171;27;97211;-46
2023/06/20 03:03:25;;;;;;;1.97;1.40;;;22.60;99.90;;;22.61;50.22;100731.19;5028106;27;96730;-46
2023/06/20 03:05:56;;;;;;;2.10;1.50;;;22.60;99.90;;;22.62;50.04;100733.75;4990512;27;100168;-46
2023/06/20 03:08:26;;;;;;;2.00;1.27;;;22.60;99.90;;;22.62;50.20;100728.38;5012724;27;97029;-44
2023/06/20 03:10:53;;;;;;;2.47;1.50;;;22.60;99.90;;;22.64;50.04;100737.16;5006730;27;97348;-45
2023/06/20 03:13:20;;;;;;;2.13;1.50;;;22.60;99.90;;;22.63;50.10;100732.75;5013527;27;97597;-48
2023/06/20 03:15:49;;;;;;;1.90;1.50;;;22.60;99.90;;;22.64;50.06;100736.31;5013573;27;101351;-45
2023/06/20 03:18:17;;;;;;;3.10;1.70;;;22.60;99.90;;;22.65;50.19;100733.47;5007489;27;102422;-47
2023/06/20 03:20:44;;;;;;;2.73;1.60;;;22.60;99.90;;;22.64;49.96;100737.16;5008730;27;96928;-49
2023/06/20 03:23:10;;;;;;;1.80;1.40;;;22.60;99.90;;;22.65;50.06;100733.47;5012177;27;98626;-45
2023/06/20 03:25:36;;;;;;;4.00;2.03;;;22.60;99.90;;;22.66;50.13;100745.94;5005970;27;111550;-46
2023/06/20 03:28:02;;;;;;;2.47;1.63;;;22.60;99.90;;;22.67;50.01;100736.88;5010752;27;97245;-44
2023/06/20 03:30:27;;;;;;;2.67;1.70;;;22.60;99.90;;;22.68;50.16;100749.34;5011167;27;97346;-46
2023/06/20 03:32:53;;;;;;;2.47;1.50;;;22.60;99.90;;;22.68;49.98;100743.13;5010829;27;97037;-45
2023/06/20 03:35:20;;;;;;;1.70;1.23;;;22.60;99.90;;;22.67;50.01;100742.25;5012506;27;96667;-56
2023/06/20 03:37:46;;;;;;;1.63;1.40;;;22.60;99.90;;;22.65;50.09;100754.97;5009762;27;97055;-47
2023/06/20 03:45:18;;;;;;;3.37;1.07;;;22.60;99.90;;;22.61;50.07;100744.63;5036582;27;97280;-47
2023/06/20 03:47:43;;;;;;;2.17;1.30;;;22.60;99.90;;;22.65;50.16;100749.59;5031210;27;97155;-48
2023/06/20 03:50:09;;;;;;;1.80;1.00;;;22.60;99.90;;;22.66;50.15;100745.94;5023731;27;97137;-47
2023/06/20 03:52:35;;;;;;;1.87;1.47;;;22.60;99.90;;;22.64;50.06;100742.53;5029444;27;97483;-45
2023/06/20 03:55:01;;;;;;;2.67;1.57;;;22.60;99.90;;;22.63;50.02;100735.44;5039161;27;97465;-44
2023/06/20 03:57:26;;;;;;;2.00;1.20;;;22.60;99.90;;;22.63;50.15;100734.59;5045125;27;97274;-44
2023/06/20 03:59:52;;;;;;;2.30;1.53;;;22.60;99.90;;;22.63;50.08;100729.22;5043205;27;97146;-43
2023/06/20 04:02:18;;;;;;;1.77;1.53;;;22.60;99.90;;;22.61;50.19;100726.66;5042507;27;97212;-46
2023/06/20 04:04:49;;;;;;;1.60;1.00;;;22.60;99.90;;;22.62;50.17;100725.69;5034122;27;98821;-43
2023/06/20 04:07:18;;;;;;;2.40;2.13;;;22.60;99.90;;;22.69;52.25;100739.44;5038029;27;101372;-44
2023/06/20 04:09:50;;;;;;;3.17;2.40;;;22.60;99.90;;;22.73;56.90;100749.81;5033349;27;98653;-43
2023/06/20 04:12:16;;;;;;;2.00;1.60;;;22.70;99.90;;;22.68;50.70;100738.59;5032940;27;97035;-44
2023/06/20 04:14:42;;;;;;;2.50;1.60;;;22.60;99.90;;;22.62;50.83;100728.38;5020522;27;118721;-48
2023/06/20 04:17:08;;;;;;;1.70;1.20;;;22.60;99.90;;;22.63;50.64;100743.50;5028570;27;111953;-47
2023/06/20 04:19:34;;;;;;;1.70;1.40;;;22.60;99.90;;;22.64;50.30;100742.53;5039169;27;97292;-46
2023/06/20 04:22:00;;;;;;;2.13;1.40;;;22.60;99.90;;;22.65;50.30;100735.31;5025465;27;96942;-47
2023/06/20 04:24:26;;;;;;;1.50;1.00;;;22.60;99.90;;;22.63;50.41;100746.19;5025121;27;106691;-46
2023/06/20 04:26:54;;;;;;;2.33;1.50;;;22.60;99.90;;;22.66;50.39;100743.25;5028979;27;121293;-48
2023/06/20 04:29:20;;;;;;;1.37;1.10;;;22.60;99.90;;;22.65;50.19;100744.22;5043027;27;96874;-52
2023/06/20 04:31:47;;;;;;;3.03;1.87;;;22.60;99.90;;;22.66;50.91;100745.09;5042608;27;97227;-45
2023/06/20 04:34:13;;;;;;;5.00;1.97;;;22.60;99.90;;;22.71;56.57;100759.84;5027116;27;97622;-46
2023/06/20 04:36:38;;;;;;;3.37;2.30;;;22.60;99.90;;;22.75;60.12;100755.91;5031343;27;97941;-45
2023/06/20 04:39:06;;;;;;;3.37;2.03;;;22.70;99.90;;;22.74;56.40;100759.59;5019616;27;97158;-45
2023/06/20 04:41:32;;;;;;;2.67;1.87;;;22.70;99.90;;;22.76;57.93;100768.38;5042199;27;99007;-47
2023/06/20 04:44:00;;;;;;;3.33;2.17;;;22.70;99.90;;;22.74;51.78;100766.81;5023525;27;104771;-48
2023/06/20 04:46:26;;;;;;;2.43;1.10;;;22.70;99.90;;;22.69;51.73;100761.78;5026453;27;99060;-49
2023/06/20 04:48:52;;;;;;;1.83;1.33;;;22.60;99.90;;;22.63;51.20;100762.34;5026578;27;97271;-45
2023/06/20 04:51:18;;;;;;;1.77;1.30;;;22.60;99.90;;;22.63;50.82;100754.25;5037192;27;97625;-43
2023/06/20 04:53:43;;;;;;;2.10;1.40;;;22.60;99.90;;;22.63;50.92;100758.78;5027299;27;96766;-44
2023/06/20 04:56:09;;;;;;;2.43;1.60;;;22.60;99.90;;;22.64;50.67;100763.19;5032602;27;97086;-44
2023/06/20 04:58:36;;;;;;;2.83;1.73;;;22.60;99.90;;;22.66;50.84;100762.06;5028386;27;97538;-46
2023/06/20 05:01:03;;;;;;;4.33;2.73;;;22.60;99.90;;;22.72;53.36;100771.47;5027973;27;97056;-46
2023/06/20 05:03:29;;;;;;;3.73;2.30;;;22.60;99.90;;;22.69;50.82;100767.16;5050997;27;97518;-47
2023/06/20 05:05:55;;;;;;;1.53;1.37;;;22.60;99.90;;;22.63;50.83;100756.94;5043923;27;98099;-46
2023/06/20 05:08:20;;;;;;;2.67;1.70;;;22.60;99.90;;;22.61;50.66;100758.94;5044057;27;99411;-47
2023/06/20 05:10:46;;;;;;;2.53;1.40;;;22.60;99.90;;;22.58;50.88;100761.88;5053243;27;97029;-46
2023/06/20 05:13:12;;;;;;;1.97;1.50;;;22.60;99.90;;;22.62;50.68;100755.25;5036230;27;97905;-48
2023/06/20 05:15:38;;;;;;;1.50;1.13;;;22.60;99.90;;;22.57;50.83;100762.84;5046478;27;97106;-46
2023/06/20 05:18:03;;;;;;;1.40;1.20;;;22.60;99.90;;;22.53;51.03;100761.38;5016538;27;97451;-48
2023/06/20 05:20:29;;;;;;;2.37;1.33;;;22.50;99.90;;;22.52;51.14;100765.06;5030441;27;97000;-47
2023/06/20 05:22:55;;;;;;;1.83;1.30;;;22.50;99.90;;;22.52;51.14;100770.44;5037919;27;105180;-47
2023/06/20 05:25:21;;;;;;;1.50;1.40;;;22.50;99.90;;;22.49;51.21;100766.19;5026846;27;96875;-56
2023/06/20 05:27:47;;;;;;;2.47;1.43;;;22.50;99.90;;;22.52;51.28;100765.06;5035640;27;96879;-52
2023/06/20 05:30:13;;;;;;;2.40;1.57;;;22.60;99.90;;;22.48;51.54;100752.88;5038748;27;97044;-46
2023/06/20 05:32:39;;;;;;;1.63;1.20;;;22.50;99.90;;;22.49;51.36;100749.19;5032865;27;96958;-46
2023/06/20 05:35:07;;;;;;;1.90;1.30;;;22.50;99.90;;;22.46;51.54;100744.94;5048552;27;98346;-48
2023/06/20 05:37:34;;;;;;;1.97;1.23;;;22.50;99.90;;;22.42;51.69;100748.00;5034109;27;97096;-46
2023/06/20 05:40:00;;;;;;;1.30;1.13;;;22.50;99.90;;;22.53;51.96;100756.00;5030080;27;96810;-46
2023/06/20 05:42:25;;;;;;;2.27;1.43;;;22.50;99.90;;;22.53;51.84;100745.25;5040818;27;97892;-46
2023/06/20 05:44:51;;;;;;;2.00;1.30;;;22.50;99.90;;;22.49;51.81;100754.56;5028608;27;114327;-48
2023/06/20 05:47:17;;;;;;;1.50;1.00;;;22.50;99.90;;;22.49;51.97;100751.88;5031367;27;97128;-45
2023/06/20 05:49:47;;;;;;;2.03;1.27;;;22.50;99.90;;;22.48;51.85;100752.88;5029614;27;97341;-44
2023/06/20 05:52:14;;;;;;;2.37;2.00;;;22.50;99.90;;;22.61;52.71;100756.22;5037851;27;97366;-46
2023/06/20 05:54:43;;;;;;;2.77;1.80;;;22.60;99.90;;;22.60;52.26;100756.38;5023298;27;99792;-44
2023/06/20 05:57:09;;;;;;;2.53;1.40;;;22.60;99.90;;;22.53;52.39;100759.56;5038696;27;97165;-45
2023/06/20 05:59:35;;;;;;;2.40;1.60;;;22.60;99.90;;;22.50;52.03;100767.88;5028208;27;100400;-45
2023/06/20 06:02:01;;;;;;;3.67;1.90;;;22.50;99.90;;;22.54;52.81;100763.09;5047999;27;97402;-46
2023/06/20 06:04:27;;;;;;;1.30;1.20;;;22.50;99.90;;;22.45;52.01;100761.19;5046318;27;97595;-46
2023/06/20 06:06:53;;;;;;;2.27;1.40;;;22.50;99.90;;;22.40;52.06;100769.63;5036429;27;97094;-47
2023/06/20 06:09:19;;;;;;;2.13;1.47;;;22.50;99.90;;;22.39;52.12;100781.34;5033230;27;96655;-45
2023/06/20 06:11:45;;;;;;;2.73;1.50;;;22.40;99.90;;;22.48;51.91;100774.38;5012486;27;103048;-43
2023/06/20 06:14:12;;;;;;;4.47;1.50;;;22.50;99.90;;;22.50;51.69;100767.88;5033332;27;97687;-46
2023/06/20 06:16:38;;;;;;;2.10;1.57;;;22.50;99.90;;;22.54;51.67;100768.47;5036471;27;97033;-46
2023/06/20 06:19:04;;;;;;;3.00;1.63;;;22.50;99.90;;;22.55;51.64;100773.72;5038835;27;97396;-45
2023/06/20 06:21:30;;;;;;;2.43;1.40;;;22.60;99.90;;;22.54;51.74;100773.84;5027067;27;97085;-46
2023/06/20 06:23:56;;;;;;;3.50;2.10;;;22.60;99.90;;;22.62;52.60;100781.28;5038677;27;97384;-44
2023/06/20 06:26:22;;;;;;;4.90;2.30;;;22.60;99.90;;;22.63;52.78;100774.91;5039492;27;97515;-46
2023/06/20 06:28:48;;;;;;;1.93;1.60;;;22.60;99.90;;;22.65;54.55;100763.03;5029657;27;113564;-46
2023/06/20 06:31:24;;;;;;;2.77;1.87;;;22.70;99.90;;;22.64;52.80;100758.66;5042643;27;97235;-47
2023/06/20 06:33:51;;;;;;;2.87;1.90;;;22.70;99.90;;;22.49;52.96;100765.31;5040617;27;99934;-46
2023/06/20 06:36:18;;;;;;;2.43;1.83;;;22.60;99.90;;;22.54;55.07;100768.47;5024817;27;97240;-46
2023/06/20 06:38:48;;;;;;;3.83;1.70;;;22.60;99.90;;;22.53;52.85;100766.75;5012766;27;97659;-48
2023/06/20 06:41:16;;;;;;;1.83;1.57;;;22.60;99.90;;;22.39;52.87;100765.22;5018545;27;97212;-44
2023/06/20 06:43:42;;;;;;;2.57;2.03;;;22.50;99.90;;;22.51;52.40;100757.97;5027928;27;96940;-44
2023/06/20 06:46:08;;;;;;;2.00;1.30;;;22.50;99.90;;;22.46;52.75;100760.22;5042918;27;97401;-45
2023/06/20 06:48:34;;;;;;;2.53;1.93;;;22.50;99.90;;;22.60;54.64;100757.22;5033056;27;100789;-46
2023/06/20 06:51:01;;;;;;;2.80;1.73;;;22.60;99.90;;;22.56;53.38;100750.38;5036495;27;114147;-45
2023/06/20 06:53:27;;;;;;;2.23;1.67;;;22.60;99.90;;;22.30;52.87;100749.91;5010544;27;98345;-44
2023/06/20 06:55:53;;;;;;;2.57;1.63;;;22.40;99.90;;;22.22;53.48;100749.66;5020402;27;96637;-46
2023/06/20 06:58:18;;;;;;;2.63;1.90;;;22.30;99.90;;;22.29;53.61;100750.88;5036414;27;97472;-44
2023/06/20 07:00:44;;;;;;;3.20;1.63;;;22.40;99.90;;;22.25;53.92;100757.47;5026123;27;105611;-44
2023/06/20 07:03:11;;;;;;;1.97;1.60;;;22.30;99.90;;;22.20;53.89;100752.47;5033997;27;105751;-44
2023/06/20 07:05:37;;;;;;;2.87;1.87;;;22.30;99.90;;;22.07;54.14;100738.34;5031665;27;96977;-46
2023/06/20 07:08:03;;;;;;;2.47;1.77;;;22.30;99.90;;;22.19;54.17;100747.25;5019670;27;98215;-44
2023/06/20 07:10:29;;;;;;;4.63;1.40;;;22.30;99.90;;;22.21;54.17;100740.75;5021727;27;97584;-44
2023/06/20 07:12:55;;;;;;;1.60;1.33;;;22.30;99.90;;;22.19;53.75;100742.72;5037735;27;114783;-44
2023/06/20 07:15:21;;;;;;;2.27;1.67;;;22.30;99.90;;;22.43;60.92;100738.97;5032763;27;97028;-51
2023/06/20 07:17:46;;;;;;;2.37;1.80;;;22.40;99.90;;;22.25;53.84;100736.81;5035973;27;98540;-46
2023/06/20 07:20:12;;;;;;;3.17;1.73;;;22.40;99.90;;;22.23;54.36;100736.09;5023570;27;105907;-45
2023/06/20 07:22:39;;;;;;;2.53;1.67;;;22.30;99.90;;;22.19;54.38;100731.13;5019835;27;97176;-45
2023/06/20 07:25:07;;;;;;;2.87;1.97;;;22.30;99.90;;;22.40;61.29;100744.59;5031096;27;97259;-45
2023/06/20 07:27:33;;;;;;;2.70;2.10;;;22.40;99.90;;;22.32;54.25;100737.19;5026719;27;97448;-48
2023/06/20 07:29:59;;;;;;;3.43;2.20;;;22.40;99.90;;;22.56;64.45;100734.25;5034314;27;97629;-44
2023/06/20 07:32:25;;;;;;;2.40;1.63;;;22.60;99.90;;;22.48;55.16;100728.69;5037317;27;97435;-44
2023/06/20 07:34:50;;;;;;;3.03;2.23;;;22.60;99.90;;;22.65;57.33;100728.09;5030975;27;114420;-47
2023/06/20 07:37:16;;;;;;;2.97;2.33;;;22.70;99.90;;;22.79;62.20;100733.16;5041925;27;96754;-46
2023/06/20 07:39:43;;;;;;;1.30;1.20;;;22.80;99.90;;;22.54;54.74;100730.84;5028182;27;97452;-46
2023/06/20 07:42:09;;;;;;;2.47;1.57;;;22.60;99.90;;;22.53;53.90;100721.06;5024868;27;96929;-44
2023/06/20 07:44:36;;;;;;;2.37;1.43;;;22.60;99.90;;;22.42;53.41;100722.00;5024082;27;101916;-44
2023/06/20 07:47:02;;;;;;;2.13;1.40;;;22.50;99.90;;;22.53;54.17;100721.06;5036910;27;97551;-44
2023/06/20 07:49:28;;;;;;;2.83;1.63;;;22.60;99.90;;;22.44;54.10;100713.81;5020636;27;98877;-44
2023/06/20 07:51:54;;;;;;;2.07;1.67;;;22.50;99.90;;;22.30;53.98;100706.06;5031538;27;97051;-46
2023/06/20 07:54:20;;;;;;;3.03;2.07;;;22.40;99.90;;;22.20;54.37;100706.81;5027284;27;97424;-47
2023/06/20 07:56:45;;;;;;;2.43;1.70;;;22.40;99.90;;;22.23;54.46;100706.53;5020860;27;103104;-44
2023/06/20 07:59:11;;;;;;;2.73;2.10;;;22.40;99.90;;;22.39;56.39;100699.88;5030029;27;110801;-46
2023/06/20 08:01:37;;;;;;;4.83;2.03;;;22.40;99.90;;;22.60;55.53;100698.06;5030782;27;100219;-46
2023/06/20 08:04:03;;;;;;;3.57;2.17;;;22.60;99.90;;;22.76;55.78;100693.09;5029031;27;97352;-49
2023/06/20 08:06:29;;;;;;;2.00;1.80;;;22.80;99.90;;;22.68;54.72;100695.56;5024745;27;97042;-48
2023/06/20 08:08:55;;;;;;;6.67;2.63;;;22.70;99.90;;;22.82;58.98;100697.97;5023208;27;105417;-48
2023/06/20 08:11:22;;;;;;;4.13;2.30;;;22.80;99.90;;;23.13;62.95;100690.75;5030243;27;97353;-51
2023/06/20 08:13:48;;;;;;;2.23;2.03;;;23.10;99.90;;;23.13;54.87;100695.28;5029713;27;97135;-45
2023/06/20 08:16:14;;;;;;;2.23;1.73;;;23.20;99.90;;;22.89;54.30;100698.31;5029091;27;96975;-48
2023/06/20 08:18:39;;;;;;;3.05;1.85;;;23.10;99.90;;;22.77;54.36;100693.94;5020054;27;110482;-45
2023/06/20 08:21:05;;;;;;;2.93;2.37;;;22.90;99.90;;;22.90;61.52;100685.69;5027149;27;104658;-45
2023/06/20 08:23:31;;;;;;;3.10;1.57;;;22.90;99.90;;;22.84;54.20;100690.59;5025079;27;97299;-46
2023/06/20 08:25:57;;;;;;;2.17;1.77;;;22.90;99.90;;;23.00;57.24;100689.28;5028572;27;97822;-46
2023/06/20 08:28:23;;;;;;;2.97;1.70;;;23.00;99.90;;;22.87;55.78;100688.66;5032042;27;107766;-46
2023/06/20 08:30:50;;;;;;;4.10;2.67;;;22.90;99.90;;;23.02;54.13;100690.88;5033827;27;96972;-48
2023/06/20 08:33:17;;;;;;;4.37;2.33;;;23.10;99.90;;;23.23;55.09;100688.13;5029733;27;97193;-45
2023/06/20 08:35:43;;;;;;;2.90;2.47;;;23.30;99.90;;;23.51;62.21;100678.44;5034622;27;97467;-45
2023/06/20 08:38:09;;;;;;;3.13;1.90;;;23.50;99.90;;;23.30;54.24;100680.38;5028775;27;97839;-45
2023/06/20 08:40:35;;;;;;;4.03;2.10;;;23.40;99.90;;;23.18;59.28;100687.69;5027003;27;97510;-45
2023/06/20 08:43:02;;;;;;;3.88;2.60;;;23.20;99.90;;;23.38;62.17;100689.44;5029020;27;97135;-47
2023/06/20 08:45:28;;;;;;;2.47;1.77;;;23.40;99.90;;;23.38;54.08;100684.06;5032801;27;97396;-45
2023/06/20 08:48:01;;;;;;;3.00;2.08;;;23.50;99.90;;;23.40;55.01;100692.84;5041009;27;97815;-46
2023/06/20 08:50:28;;;;;;;3.33;2.53;;;23.50;99.90;;;23.55;55.55;100689.78;5015625;27;97278;-46
2023/06/20 08:52:55;;;;;;;4.38;2.17;;;23.60;99.90;;;23.50;53.75;100681.28;5040914;27;97194;-45
2023/06/20 08:55:22;;;;;;;3.05;2.10;;;23.60;99.90;;;23.37;54.53;100681.53;5024386;27;96747;-45
2023/06/20 08:57:48;;;;;;;2.65;1.98;;;23.50;99.90;;;22.96;53.64;100672.56;5030015;27;102123;-47
2023/06/20 09:00:20;;;;;;;2.07;1.83;;;23.20;99.90;;;22.79;53.45;100684.75;5032431;27;97599;-45
2023/06/20 09:02:50;;;;;;;4.38;2.35;;;23.00;99.90;;;23.14;60.87;100697.00;5029074;27;97132;-48
2023/06/20 09:05:17;;;;;;;3.10;2.47;;;23.20;99.90;;;23.27;54.96;100694.94;5026385;27;96932;-47
2023/06/20 09:07:43;;;;;;;2.92;2.33;;;23.40;99.90;;;23.39;56.23;100696.53;5033262;27;97667;-48
2023/06/20 09:10:14;;;;;;;4.13;2.50;;;23.40;99.90;;;23.40;55.33;100698.25;5036114;27;97092;-47
2023/06/20 09:12:51;;;;;;;4.07;2.45;;;23.50;99.90;;;23.76;56.47;100693.28;5022169;27;97332;-45
2023/06/20 09:15:21;;;;;;;3.63;2.75;;;23.80;99.90;;;24.03;59.24;100698.88;5027526;27;97092;-45
2023/06/20 09:18:00;;;;;;;2.97;2.37;;;24.10;99.90;;;24.02;53.33;100699.84;5023612;27;101008;-49
2023/06/20 09:20:29;;;;;;;3.05;2.45;;;24.20;99.90;;;23.77;54.60;100700.38;5024324;27;99748;-47
2023/06/20 09:22:56;;;;;;;3.08;2.28;;;23.90;99.90;;;23.84;53.62;100690.75;5028332;27;97305;-46
2023/06/20 09:25:24;;;;;;;3.33;2.50;;;23.90;99.90;;;23.83;55.85;100689.03;5028175;27;97260;-46
2023/06/20 09:27:52;;;;;;;4.45;3.15;;;23.90;99.90;;;23.76;54.45;100687.06;5024048;27;103351;-46
2023/06/20 09:30:18;;;;;;;4.40;2.85;;;23.80;99.90;;;23.71;58.41;100690.13;5041344;27;101513;-46
2023/06/20 09:32:44;;;;;;;4.28;3.38;;;23.80;99.90;;;23.48;59.72;100692.19;5022501;27;96829;-47
2023/06/20 09:35:16;;;;;;;3.05;2.20;;;23.60;99.90;;;23.52;53.50;100690.06;5020550;27;97232;-45
2023/06/20 09:38:05;;;;;;;2.20;1.95;;;23.60;99.90;;;23.47;58.12;100695.03;5030708;27;96887;-45
2023/06/20 09:40:41;;;;;;;2.55;2.35;;;23.50;99.90;;;23.65;59.98;100702.31;5024905;27;101374;-45
2023/06/20 09:43:07;;;;;;;6.57;2.42;;;23.60;99.90;;;23.86;53.40;100693.28;5035482;27;106155;-45
2023/06/20 09:45:32;;;;;;;2.90;2.10;;;24.00;99.90;;;23.77;52.98;100697.69;5024748;27;104364;-45
2023/06/20 09:47:59;;;;;;;3.45;2.50;;;23.90;99.90;;;23.71;54.19;100696.38;5027575;27;97939;-45
2023/06/20 09:50:27;;;;;;;3.55;2.47;;;23.80;99.90;;;23.75;54.06;100691.59;5021718;27;117636;-45
2023/06/20 09:53:10;;;;;;;2.97;2.20;;;23.90;99.90;;;23.76;53.67;100682.53;5027486;27;97163;-45
2023/06/20 09:55:37;;;;;;;3.08;2.63;;;23.90;99.90;;;23.51;53.56;100682.97;5027716;27;97034;-45
2023/06/20 09:58:07;;;;;;;4.15;2.85;;;23.60;99.90;;;23.69;54.12;100686.75;5024525;27;97086;-47
2023/06/20 10:00:35;;;;;;;4.90;3.03;;;23.80;99.90;;;23.95;54.65;100677.16;5029333;27;97743;-45
2023/06/20 10:03:09;;;;;;;3.53;2.22;;;24.00;99.90;;;23.58;53.20;100668.88;5024533;27;97522;-45
2023/06/20 10:05:36;;;;;;;2.90;2.60;;;23.80;99.90;;;23.80;58.55;100667.78;5020538;27;97175;-46
2023/06/20 10:08:03;;;;;;;3.17;2.60;;;23.80;99.90;;;23.95;57.16;100670.91;5020928;27;97584;-45
2023/06/20 10:10:28;;;;;;;3.90;2.70;;;24.00;99.90;;;24.12;59.15;100666.66;5030845;27;97147;-45
2023/06/20 10:12:55;;;;;;;4.63;3.13;;;24.10;99.90;;;23.73;51.90;100672.03;5023458;27;109818;-46
2023/06/20 10:15:22;;;;;;;3.80;3.10;;;23.90;99.90;;;24.03;58.95;100671.06;5025969;27;96862;-45
2023/06/20 10:17:48;;;;;;;3.03;2.22;;;24.10;99.90;;;23.77;52.83;100662.69;5025717;27;104033;-46
2023/06/20 10:20:26;;;;;;;3.65;3.20;;;24.00;99.90;;;24.15;59.54;100648.38;5022147;27;98090;-49